Terminal Aerodrome Forecast
Issued by NWS Brownsville, TX

Current Version | Previous Version | Text Only | Print | Product List | Glossary Off
Versions: 1 2 3 4 5 6 7 8 9 10 11 12 13 14 15 16 17 18 19 20 21 22 23 24 25 26 27 28 29 30 31 32 33 34 35 36

000
FTUS44 KBRO 310010 AAA
TAFHRL
TAF AMD
KHRL 310010Z 3100/3124 10011KT P6SM SKC
     FM310400 14005KT P6SM FEW035
     FM311000 VRB05KT 5SM BR BKN010
      TEMPO 3110/3113 1/2SM FG VV008
     FM311500 16008KT P6SM SCT030=

USA.gov is the U.S. government's official web portal to all federal, state and local government web resources and services.